createdAt,value
2018-07-15T00:02:03.475Z,6.60
2018-07-15T00:04:44.889Z,7.47
2018-07-15T00:07:26.602Z,4.50
2018-07-15T00:10:07.391Z,7.87
2018-07-15T00:12:48.484Z,5.07
2018-07-15T00:15:29.051Z,6.73
2018-07-15T00:18:10.408Z,3.83
2018-07-15T00:20:51.914Z,4.27
2018-07-15T00:23:32.556Z,9.03
2018-07-15T00:26:13.347Z,7.17
2018-07-15T00:28:54.847Z,4.60
2018-07-15T00:31:35.996Z,3.57
2018-07-15T00:34:17.312Z,3.20
2018-07-15T00:36:58.513Z,4.00
2018-07-15T00:39:40.133Z,4.93
2018-07-15T00:42:20.832Z,9.70
2018-07-15T00:45:02.188Z,3.63
2018-07-15T00:47:43.100Z,10.57
2018-07-15T00:50:24.048Z,4.23
2018-07-15T00:53:05.044Z,7.23
2018-07-15T00:55:46.004Z,8.93
2018-07-15T00:58:26.860Z,4.57
2018-07-15T01:01:07.652Z,5.97
2018-07-15T01:03:48.339Z,7.87
2018-07-15T01:06:29.220Z,5.00
2018-07-15T01:09:11.164Z,4.53
2018-07-15T01:11:52.059Z,6.03
2018-07-15T01:14:33.144Z,10.60
2018-07-15T01:17:14.079Z,12.13
2018-07-15T01:19:54.693Z,6.83
2018-07-15T01:22:35.911Z,6.43
2018-07-15T01:25:17.247Z,6.03
2018-07-15T01:27:58.247Z,9.20
2018-07-15T01:30:39.597Z,7.70
2018-07-15T01:33:20.394Z,22.53
2018-07-15T01:36:01.380Z,5.83
2018-07-15T01:38:42.438Z,7.40
2018-07-15T01:41:23.881Z,11.13
2018-07-15T01:44:05.015Z,13.07
2018-07-15T01:46:46.405Z,7.73
2018-07-15T01:49:27.960Z,8.43
2018-07-15T01:52:09.591Z,9.57
2018-07-15T01:54:51.061Z,7.33
2018-07-15T01:57:31.777Z,8.37
2018-07-15T02:00:13.110Z,7.87
2018-07-15T02:02:54.082Z,10.60
2018-07-15T02:05:34.700Z,7.97
2018-07-15T02:08:15.615Z,6.87
2018-07-15T02:10:56.635Z,8.23
2018-07-15T02:13:37.581Z,7.50
2018-07-15T02:16:18.475Z,6.40
2018-07-15T02:18:59.900Z,6.80
2018-07-15T02:21:40.704Z,6.40
2018-07-15T02:24:21.934Z,6.40
2018-07-15T02:27:03.200Z,7.27
2018-07-15T02:29:44.337Z,7.90
2018-07-15T02:32:24.792Z,7.43
2018-07-15T02:35:06.208Z,8.60
2018-07-15T02:37:46.961Z,12.77
2018-07-15T02:40:28.368Z,12.97
2018-07-15T02:43:09.304Z,10.93
2018-07-15T02:45:49.980Z,14.37
2018-07-15T02:48:31.189Z,13.53
2018-07-15T02:51:12.863Z,11.17
2018-07-15T02:53:53.886Z,13.73
2018-07-15T02:56:35.306Z,18.97
2018-07-15T02:59:16.032Z,11.97
2018-07-15T03:01:57.312Z,12.33
2018-07-15T03:04:37.972Z,13.70
2018-07-15T03:07:19.304Z,12.53
2018-07-15T03:10:00.695Z,11.03
2018-07-15T03:12:41.381Z,11.83
2018-07-15T03:15:22.352Z,12.77
2018-07-15T03:18:03.066Z,11.80
2018-07-15T03:20:44.168Z,23.10
2018-07-15T03:23:24.904Z,11.83
2018-07-15T03:26:06.019Z,11.83
2018-07-15T03:28:47.215Z,11.47
2018-07-15T03:31:28.096Z,10.50
2018-07-15T03:34:09.140Z,10.97
2018-07-15T03:36:50.032Z,16.20
2018-07-15T03:39:31.277Z,12.00
2018-07-15T03:42:12.256Z,12.97
2018-07-15T03:44:53.276Z,13.43
2018-07-15T03:47:34.775Z,17.33
2018-07-15T03:50:15.432Z,10.87
2018-07-15T03:52:56.855Z,11.60
2018-07-15T03:55:38.244Z,12.07
2018-07-15T03:58:19.612Z,11.90
2018-07-15T04:01:01.016Z,17.73
2018-07-15T04:03:42.376Z,14.13
2018-07-15T04:06:23.075Z,12.70
2018-07-15T04:09:05.232Z,13.73
2018-07-15T04:11:46.319Z,11.47
2018-07-15T04:14:27.283Z,10.43
2018-07-15T04:17:08.825Z,26.13
2018-07-15T04:19:49.349Z,13.63
2018-07-15T04:22:30.475Z,12.43
2018-07-15T04:25:11.333Z,13.07
2018-07-15T04:27:52.092Z,11.23
2018-07-15T04:30:33.084Z,11.03
2018-07-15T04:33:14.527Z,14.43
2018-07-15T04:35:55.391Z,12.73
2018-07-15T04:38:36.836Z,11.67
2018-07-15T04:41:17.652Z,9.90
2018-07-15T04:43:58.527Z,9.90
2018-07-15T04:46:39.673Z,12.13
2018-07-15T04:49:20.671Z,10.67
2018-07-15T04:52:01.975Z,11.07
2018-07-15T04:54:42.850Z,10.37
2018-07-15T04:57:23.840Z,9.43
2018-07-15T05:00:05.155Z,9.43
2018-07-15T05:02:46.417Z,9.53
2018-07-15T05:05:27.376Z,10.37
2018-07-15T05:08:08.789Z,11.47
2018-07-15T05:10:50.114Z,13.30
2018-07-15T05:13:31.361Z,11.90
2018-07-15T05:16:11.871Z,10.80
2018-07-15T05:18:52.788Z,9.73
2018-07-15T05:21:34.107Z,18.37
2018-07-15T05:24:15.203Z,20.53
2018-07-15T05:26:55.996Z,8.87
2018-07-15T05:29:36.861Z,9.97
2018-07-15T05:32:17.564Z,9.33
2018-07-15T05:35:04.888Z,11.20
2018-07-15T05:37:45.424Z,7.77
2018-07-15T05:40:26.419Z,8.50
2018-07-15T05:43:07.440Z,9.00
2018-07-15T05:45:48.630Z,7.40
2018-07-15T05:48:29.431Z,7.40
2018-07-15T05:51:10.467Z,8.27
2018-07-15T05:53:51.967Z,7.83
2018-07-15T05:56:33.287Z,11.80
2018-07-15T05:59:14.319Z,10.83
2018-07-15T06:01:55.274Z,14.40
2018-07-15T06:04:36.427Z,22.23
2018-07-15T06:07:18.226Z,12.60
2018-07-15T06:09:58.924Z,32.20
2018-07-15T06:12:39.910Z,10.50
2018-07-15T06:15:20.499Z,7.30
2018-07-15T06:18:01.760Z,8.70
2018-07-15T06:20:42.447Z,6.67
2018-07-15T06:23:23.600Z,7.03
2018-07-15T06:26:04.427Z,12.03
2018-07-15T06:28:45.616Z,12.50
2018-07-15T06:31:27.291Z,5.30
2018-07-15T06:34:08.504Z,20.77
2018-07-15T06:36:49.906Z,5.27
2018-07-15T06:39:30.677Z,7.10
2018-07-15T06:42:11.763Z,6.60
2018-07-15T06:44:52.468Z,16.80
2018-07-15T06:47:33.260Z,9.33
2018-07-15T06:50:14.251Z,17.90
2018-07-15T06:52:54.915Z,7.97
2018-07-15T06:55:35.860Z,11.50
2018-07-15T06:58:17.599Z,13.47
2018-07-15T07:00:58.896Z,5.00
2018-07-15T07:03:39.864Z,12.80
2018-07-15T07:06:21.023Z,7.17
2018-07-15T07:09:01.718Z,6.97
2018-07-15T07:11:42.759Z,8.77
2018-07-15T07:14:23.623Z,7.07
2018-07-15T07:17:04.739Z,4.23
2018-07-15T07:19:46.138Z,10.70
2018-07-15T07:22:26.728Z,22.47
2018-07-15T07:25:08.106Z,7.83
2018-07-15T07:27:49.001Z,5.73
2018-07-15T07:30:29.848Z,7.93
2018-07-15T07:33:11.243Z,4.50
2018-07-15T07:35:54.063Z,4.83
2018-07-15T07:38:35.283Z,4.30
2018-07-15T07:41:16.497Z,5.87
2018-07-15T07:43:57.867Z,5.87
2018-07-15T07:46:41.801Z,6.57
2018-07-15T07:49:22.983Z,10.03
2018-07-15T07:52:04.419Z,8.87
2018-07-15T07:54:45.084Z,6.50
2018-07-15T07:57:26.211Z,4.57
2018-07-15T08:00:06.886Z,13.83
2018-07-15T08:02:47.679Z,13.47
2018-07-15T08:05:28.823Z,7.40
2018-07-15T08:08:09.464Z,8.33
2018-07-15T08:10:51.478Z,6.70
2018-07-15T08:13:33.698Z,9.83
2018-07-15T08:16:15.577Z,4.47
2018-07-15T08:18:56.281Z,7.90
2018-07-15T08:21:36.956Z,5.83
2018-07-15T08:24:18.250Z,6.07
2018-07-15T08:26:58.970Z,11.43
2018-07-15T08:29:40.329Z,4.63
2018-07-15T08:32:21.544Z,10.03
2018-07-15T08:35:02.682Z,6.00
2018-07-15T08:37:44.075Z,7.03
2018-07-15T08:40:24.971Z,13.43
2018-07-15T08:43:05.852Z,8.50
2018-07-15T08:45:47.070Z,7.60
2018-07-15T08:48:28.522Z,6.47
2018-07-15T08:51:09.447Z,13.37
2018-07-15T08:53:50.600Z,10.30
2018-07-15T08:56:31.315Z,15.93
2018-07-15T08:59:12.580Z,13.07
2018-07-15T09:01:53.538Z,8.70
2018-07-15T09:04:34.857Z,11.70
2018-07-15T09:07:15.848Z,15.93
2018-07-15T09:09:56.763Z,11.30
2018-07-15T09:12:37.756Z,8.30
2018-07-15T09:15:18.768Z,18.90
2018-07-15T09:17:59.796Z,17.97
2018-07-15T09:20:40.443Z,9.20
2018-07-15T09:23:21.630Z,6.03
2018-07-15T09:26:02.859Z,12.00
2018-07-15T09:28:44.075Z,16.90
2018-07-15T09:31:25.380Z,12.53
2018-07-15T09:34:06.428Z,14.30
2018-07-15T09:36:47.576Z,14.00
2018-07-15T09:39:28.727Z,11.90
2018-07-15T09:42:09.951Z,5.50
2018-07-15T09:44:51.365Z,5.17
2018-07-15T09:47:32.840Z,5.80
2018-07-15T09:50:14.265Z,4.50
2018-07-15T09:52:55.144Z,11.40
2018-07-15T09:55:36.469Z,5.53
2018-07-15T09:58:17.967Z,5.80
2018-07-15T10:00:59.202Z,6.50
2018-07-15T10:03:40.527Z,6.97
2018-07-15T10:06:21.458Z,6.10
2018-07-15T10:09:02.404Z,6.00
2018-07-15T10:11:43.362Z,23.30
2018-07-15T10:14:24.381Z,7.10
2018-07-15T10:17:05.507Z,6.67
2018-07-15T10:19:46.604Z,20.70
2018-07-15T10:22:27.588Z,10.40
2018-07-15T10:25:08.338Z,13.07
2018-07-15T10:27:49.166Z,7.87
2018-07-15T10:30:30.286Z,8.83
2018-07-15T10:33:11.479Z,27.80
2018-07-15T10:35:52.480Z,6.53
2018-07-15T10:38:33.608Z,8.23
2018-07-15T10:41:14.814Z,10.13
2018-07-15T10:43:55.994Z,17.20
2018-07-15T10:46:37.159Z,11.43
2018-07-15T10:49:18.469Z,13.00
2018-07-15T10:51:59.185Z,12.83
2018-07-15T10:54:40.582Z,11.93
2018-07-15T10:57:21.404Z,9.27
2018-07-15T11:00:02.628Z,6.77
2018-07-15T11:02:43.722Z,8.87
2018-07-15T11:05:25.195Z,5.70
2018-07-15T11:08:06.223Z,7.00
2018-07-15T11:10:47.400Z,6.43
2018-07-15T11:13:28.888Z,17.30
2018-07-15T11:16:09.540Z,8.73
2018-07-15T11:18:50.891Z,10.10
2018-07-15T11:21:32.203Z,14.20
2018-07-15T11:24:12.829Z,9.53
2018-07-15T11:26:53.629Z,10.87
2018-07-15T11:29:34.992Z,6.73
2018-07-15T11:32:16.228Z,8.70
2018-07-15T11:34:57.289Z,4.87
2018-07-15T11:37:38.451Z,10.73
2018-07-15T11:40:20.040Z,5.07
2018-07-15T11:43:01.036Z,5.07
2018-07-15T11:45:42.016Z,9.70
2018-07-15T11:48:23.185Z,13.07
2018-07-15T11:51:04.296Z,15.10
2018-07-15T11:53:45.266Z,7.70
2018-07-15T11:56:26.000Z,13.53
2018-07-15T11:59:07.329Z,13.23
2018-07-15T12:01:48.561Z,19.63
2018-07-15T12:04:29.044Z,4.77
2018-07-15T12:07:10.320Z,14.87
2018-07-15T12:09:51.692Z,8.23
2018-07-15T12:12:32.927Z,5.97
2018-07-15T12:15:14.119Z,7.83
2018-07-15T12:17:55.366Z,15.60
2018-07-15T12:20:36.664Z,12.50
2018-07-15T12:23:17.941Z,9.07
2018-07-15T12:25:59.337Z,5.97
2018-07-15T12:28:40.840Z,11.60
2018-07-15T12:31:21.333Z,4.20
2018-07-15T12:34:02.486Z,11.03
2018-07-15T12:36:43.605Z,9.57
2018-07-15T12:39:24.835Z,4.97
2018-07-15T12:42:05.799Z,10.00
2018-07-15T12:44:46.833Z,8.60
2018-07-15T12:47:27.736Z,7.83
2018-07-15T12:50:08.959Z,6.13
2018-07-15T12:52:50.202Z,8.50
2018-07-15T12:55:31.718Z,16.07
2018-07-15T12:58:12.460Z,13.37
2018-07-15T13:00:53.636Z,4.43
2018-07-15T13:03:34.528Z,7.53
2018-07-15T13:06:15.174Z,7.07
2018-07-15T13:08:56.386Z,21.33
2018-07-15T13:11:37.075Z,5.43
2018-07-15T13:14:18.136Z,12.83
2018-07-15T13:16:58.634Z,8.47
2018-07-15T13:19:39.495Z,5.93
2018-07-15T13:22:20.911Z,6.63
2018-07-15T13:25:01.779Z,7.77
2018-07-15T13:27:43.012Z,13.53
2018-07-15T13:30:24.401Z,11.57
2018-07-15T13:33:05.356Z,4.97
2018-07-15T13:35:46.214Z,8.23
2018-07-15T13:38:27.227Z,7.60
2018-07-15T13:41:08.441Z,6.57
2018-07-15T13:43:49.349Z,7.07
2018-07-15T13:46:29.825Z,6.40
2018-07-15T13:49:10.636Z,8.63
2018-07-15T13:51:51.416Z,12.83
2018-07-15T13:54:32.420Z,6.17
2018-07-15T13:57:13.415Z,9.23
2018-07-15T13:59:54.239Z,8.67
2018-07-15T14:02:35.364Z,5.07
2018-07-15T14:05:15.927Z,6.13
2018-07-15T14:07:56.983Z,8.83
2018-07-15T14:10:37.855Z,5.23
2018-07-15T14:13:18.680Z,4.37
2018-07-15T14:15:59.548Z,5.87
2018-07-15T14:18:40.751Z,6.50
2018-07-15T14:21:21.829Z,5.90
2018-07-15T14:24:02.508Z,11.80
2018-07-15T14:26:43.676Z,8.60
2018-07-15T14:29:25.002Z,13.93
2018-07-15T14:32:06.065Z,13.83
2018-07-15T14:34:47.119Z,5.47
2018-07-15T14:37:28.041Z,9.03
2018-07-15T14:40:09.219Z,11.23
2018-07-15T14:42:50.589Z,12.13
2018-07-15T14:45:31.859Z,17.50
2018-07-15T14:48:13.032Z,10.53
2018-07-15T14:50:53.992Z,4.93
2018-07-15T14:53:35.061Z,5.27
2018-07-15T14:56:15.949Z,9.77
2018-07-15T14:58:57.164Z,18.57
2018-07-15T15:01:38.049Z,10.37
2018-07-15T15:04:18.924Z,9.17
2018-07-15T15:06:59.755Z,11.20
2018-07-15T15:09:40.715Z,9.80
2018-07-15T15:12:22.017Z,9.70
2018-07-15T15:15:03.127Z,8.43
2018-07-15T15:17:44.031Z,9.20
2018-07-15T15:20:24.988Z,23.37
2018-07-15T15:23:06.028Z,17.90
2018-07-15T15:25:47.273Z,11.00
2018-07-15T15:28:28.281Z,11.23
2018-07-15T15:31:09.425Z,10.90
2018-07-15T15:33:50.508Z,5.90
2018-07-15T15:36:31.659Z,19.03
2018-07-15T15:39:12.667Z,22.73
2018-07-15T15:41:53.953Z,15.77
2018-07-15T15:44:35.561Z,21.07
2018-07-15T15:47:16.815Z,19.27
2018-07-15T15:49:58.093Z,12.60
2018-07-15T15:52:39.123Z,13.13
2018-07-15T15:55:20.285Z,21.20
2018-07-15T15:58:01.258Z,15.87
2018-07-15T16:00:41.786Z,9.20
2018-07-15T16:03:22.579Z,14.13
2018-07-15T16:06:03.617Z,16.23
2018-07-15T16:08:44.273Z,15.00
2018-07-15T16:11:25.508Z,17.60
2018-07-15T16:14:07.284Z,13.90
2018-07-15T16:16:48.035Z,12.80
2018-07-15T16:19:28.982Z,12.23
2018-07-15T16:22:09.949Z,16.00
2018-07-15T16:24:51.371Z,10.03
2018-07-15T16:27:31.936Z,11.20
2018-07-15T16:30:12.747Z,19.27
2018-07-15T16:32:53.949Z,24.23
2018-07-15T16:35:34.755Z,23.80
2018-07-15T16:38:15.547Z,21.20
2018-07-15T16:40:56.666Z,18.00
2018-07-15T16:43:37.643Z,21.83
2018-07-15T16:46:18.164Z,31.93
2018-07-15T16:48:59.543Z,26.97
2018-07-15T16:51:40.132Z,24.90
2018-07-15T16:54:21.631Z,19.77
2018-07-15T16:57:03.069Z,26.37
2018-07-15T16:59:43.781Z,23.67
2018-07-15T17:02:24.782Z,33.50
2018-07-15T17:05:05.767Z,22.30
2018-07-15T17:07:46.888Z,32.13
2018-07-15T17:10:28.034Z,24.77
2018-07-15T17:13:08.976Z,25.87
2018-07-15T17:15:50.036Z,29.63
2018-07-15T17:18:31.640Z,36.97
2018-07-15T17:21:13.067Z,26.93
2018-07-15T17:23:54.016Z,46.10
2018-07-15T17:26:35.489Z,25.17
2018-07-15T17:29:16.567Z,30.63
2018-07-15T17:31:57.932Z,28.83
2018-07-15T17:34:39.405Z,32.57
2018-07-15T17:37:20.864Z,29.07
2018-07-15T17:40:01.808Z,31.77
2018-07-15T17:42:43.282Z,42.00
2018-07-15T17:45:24.542Z,39.87
2018-07-15T17:48:06.008Z,37.67
2018-07-15T17:50:47.172Z,33.53
2018-07-15T17:53:28.459Z,40.33
2018-07-15T17:56:09.975Z,31.47
2018-07-15T17:58:51.314Z,35.30
2018-07-15T18:01:32.818Z,25.10
2018-07-15T18:04:13.319Z,22.60
2018-07-15T18:06:53.977Z,48.57
2018-07-15T18:09:34.545Z,30.60
2018-07-15T18:12:15.937Z,35.03
2018-07-15T18:14:57.791Z,20.40
2018-07-15T18:17:38.444Z,34.67
2018-07-15T18:20:19.709Z,40.33
2018-07-15T18:23:00.541Z,23.83
2018-07-15T18:25:41.528Z,42.00
2018-07-15T18:28:22.939Z,35.67
2018-07-15T18:31:04.028Z,41.03
2018-07-15T18:33:45.162Z,32.60
2018-07-15T18:36:26.263Z,29.33
2018-07-15T18:39:07.753Z,27.47
2018-07-15T18:41:48.536Z,32.20
2018-07-15T18:44:29.624Z,34.80
2018-07-15T18:47:10.475Z,40.07
2018-07-15T18:49:51.512Z,42.27
2018-07-15T18:52:32.318Z,33.23
2018-07-15T18:55:13.263Z,45.63
2018-07-15T18:57:54.700Z,45.80
2018-07-15T19:00:35.747Z,45.13
2018-07-15T19:03:17.163Z,50.07
2018-07-15T19:05:58.610Z,35.53
2018-07-15T19:08:39.521Z,55.90
2018-07-15T19:11:20.520Z,34.20
2018-07-15T19:14:01.636Z,32.50
2018-07-15T19:16:42.624Z,43.77
2018-07-15T19:19:23.860Z,38.50
2018-07-15T19:22:05.316Z,31.67
2018-07-15T19:24:46.442Z,32.07
2018-07-15T19:27:27.583Z,43.63
2018-07-15T19:30:08.767Z,40.03
2018-07-15T19:32:50.230Z,31.57
2018-07-15T19:35:31.685Z,41.67
2018-07-15T19:38:13.246Z,29.63
2018-07-15T19:40:53.941Z,42.27
2018-07-15T19:43:35.161Z,46.00
2018-07-15T19:46:15.991Z,36.43
2018-07-15T19:48:57.263Z,35.30
2018-07-15T19:51:38.503Z,37.67
2018-07-15T19:54:19.240Z,40.57
2018-07-15T19:57:00.699Z,36.43
2018-07-15T19:59:41.788Z,34.40
2018-07-15T20:02:22.768Z,37.00
2018-07-15T20:05:03.763Z,36.37
2018-07-15T20:07:44.681Z,38.63
2018-07-15T20:10:25.746Z,33.03
2018-07-15T20:13:07.342Z,34.13
2018-07-15T20:15:48.007Z,44.57
2018-07-15T20:18:29.174Z,44.80
2018-07-15T20:21:10.252Z,50.60
2018-07-15T20:23:51.985Z,46.23
2018-07-15T20:26:32.975Z,57.53
2018-07-15T20:29:14.020Z,57.33
2018-07-15T20:31:55.384Z,56.23
2018-07-15T20:34:36.529Z,46.37
2018-07-15T20:37:17.745Z,52.43
2018-07-15T20:39:58.700Z,45.87
2018-07-15T20:42:39.921Z,40.60
2018-07-15T20:45:21.478Z,51.93
2018-07-15T20:48:02.547Z,53.63
2018-07-15T20:50:43.978Z,43.70
2018-07-15T20:53:24.974Z,42.67
2018-07-15T20:56:06.507Z,40.57
2018-07-15T20:58:47.281Z,51.13
2018-07-15T21:01:28.459Z,49.63
2018-07-15T21:04:10.040Z,41.17
2018-07-15T21:06:51.132Z,40.60
2018-07-15T21:09:32.376Z,34.13
2018-07-15T21:12:13.208Z,48.90
2018-07-15T21:14:54.211Z,48.30
2018-07-15T21:17:35.341Z,37.20
2018-07-15T21:20:16.425Z,42.10
2018-07-15T21:22:57.307Z,37.53
2018-07-15T21:25:38.772Z,29.47
2018-07-15T21:28:20.317Z,36.40
2018-07-15T21:31:01.243Z,46.13
2018-07-15T21:33:42.788Z,35.73
2018-07-15T21:36:24.058Z,38.03
2018-07-15T21:39:05.444Z,45.70
2018-07-15T21:41:46.858Z,45.20
2018-07-15T21:44:28.232Z,45.13
2018-07-15T21:47:09.400Z,41.40
2018-07-15T21:49:50.929Z,51.90
2018-07-15T21:52:32.166Z,47.03
2018-07-15T21:55:13.355Z,38.97
2018-07-15T21:57:54.631Z,51.47
2018-07-15T22:00:35.510Z,51.93
2018-07-15T22:03:16.488Z,41.27
2018-07-15T22:05:57.195Z,43.43
2018-07-15T22:08:38.283Z,43.73
2018-07-15T22:11:18.969Z,37.87
2018-07-15T22:14:00.403Z,44.83
2018-07-15T22:16:41.389Z,34.97
2018-07-15T22:19:22.507Z,31.80
2018-07-15T22:22:03.595Z,34.80
2018-07-15T22:24:44.388Z,37.03
2018-07-15T22:27:25.092Z,50.90
2018-07-15T22:30:05.825Z,38.17
2018-07-15T22:32:46.670Z,35.53
2018-07-15T22:35:27.991Z,38.93
2018-07-15T22:38:08.973Z,39.80
2018-07-15T22:40:49.923Z,34.77
2018-07-15T22:43:31.232Z,31.47
2018-07-15T22:46:12.495Z,32.13
2018-07-15T22:48:53.235Z,37.27
2018-07-15T22:51:33.963Z,35.60
2018-07-15T22:54:14.893Z,41.93
2018-07-15T22:56:55.578Z,31.90
2018-07-15T22:59:37.095Z,38.63
2018-07-15T23:02:18.016Z,40.03
2018-07-15T23:04:58.799Z,30.73
2018-07-15T23:07:39.687Z,29.70
2018-07-15T23:10:20.994Z,47.27
2018-07-15T23:13:03.383Z,44.60
2018-07-15T23:15:44.863Z,30.73
2018-07-15T23:18:25.681Z,36.30
2018-07-15T23:21:06.668Z,31.13
2018-07-15T23:23:47.684Z,29.00
2018-07-15T23:26:28.516Z,36.43
2018-07-15T23:29:09.455Z,44.17
2018-07-15T23:31:50.262Z,37.87
2018-07-15T23:34:30.848Z,47.00
2018-07-15T23:37:12.404Z,35.10
2018-07-15T23:39:52.928Z,39.83
2018-07-15T23:42:34.444Z,39.10
2018-07-15T23:45:15.266Z,32.70
2018-07-15T23:47:56.632Z,44.90
2018-07-15T23:50:37.679Z,43.33
2018-07-15T23:53:18.848Z,42.97
2018-07-15T23:56:00.241Z,37.03
2018-07-15T23:58:41.580Z,36.07
